sensor_id;sensor_type;location;lat;lon;timestamp;P1;durP1;ratioP1;P2;durP2;ratioP2
33826;SDS011;20128;45.582;5.298;2023-09-12T00:00:49;4.30;;;3.10;;
33826;SDS011;20128;45.582;5.298;2023-09-12T00:03:18;7.05;;;2.80;;
33826;SDS011;20128;45.582;5.298;2023-09-12T00:05:50;4.50;;;3.20;;
33826;SDS011;20128;45.582;5.298;2023-09-12T00:08:19;3.53;;;2.78;;
33826;SDS011;20128;45.582;5.298;2023-09-12T00:10:45;6.40;;;2.92;;
33826;SDS011;20128;45.582;5.298;2023-09-12T00:13:11;12.98;;;3.13;;
33826;SDS011;20128;45.582;5.298;2023-09-12T00:15:36;4.68;;;3.20;;
33826;SDS011;20128;45.582;5.298;2023-09-12T00:18:02;4.63;;;3.90;;
33826;SDS011;20128;45.582;5.298;2023-09-12T00:20:28;6.05;;;3.70;;
33826;SDS011;20128;45.582;5.298;2023-09-12T00:22:54;4.63;;;2.97;;
33826;SDS011;20128;45.582;5.298;2023-09-12T00:25:20;4.13;;;3.15;;
33826;SDS011;20128;45.582;5.298;2023-09-12T00:27:46;4.60;;;3.30;;
33826;SDS011;20128;45.582;5.298;2023-09-12T00:30:13;10.25;;;3.10;;
33826;SDS011;20128;45.582;5.298;2023-09-12T00:32:39;6.97;;;3.30;;
33826;SDS011;20128;45.582;5.298;2023-09-12T00:35:05;3.38;;;3.05;;
33826;SDS011;20128;45.582;5.298;2023-09-12T00:37:31;5.38;;;3.30;;
33826;SDS011;20128;45.582;5.298;2023-09-12T00:39:57;6.30;;;2.92;;
33826;SDS011;20128;45.582;5.298;2023-09-12T00:42:25;5.35;;;3.30;;
33826;SDS011;20128;45.582;5.298;2023-09-12T00:44:51;6.50;;;3.00;;
33826;SDS011;20128;45.582;5.298;2023-09-12T00:47:17;5.30;;;3.42;;
33826;SDS011;20128;45.582;5.298;2023-09-12T00:49:44;9.10;;;4.18;;
33826;SDS011;20128;45.582;5.298;2023-09-12T00:52:10;5.07;;;3.40;;
33826;SDS011;20128;45.582;5.298;2023-09-12T00:54:37;5.30;;;3.58;;
33826;SDS011;20128;45.582;5.298;2023-09-12T00:57:04;5.30;;;3.10;;
33826;SDS011;20128;45.582;5.298;2023-09-12T00:59:30;4.50;;;2.72;;
33826;SDS011;20128;45.582;5.298;2023-09-12T01:01:56;7.95;;;3.35;;
33826;SDS011;20128;45.582;5.298;2023-09-12T01:04:22;5.88;;;3.75;;
33826;SDS011;20128;45.582;5.298;2023-09-12T01:06:48;5.50;;;3.13;;
33826;SDS011;20128;45.582;5.298;2023-09-12T01:09:14;5.18;;;3.42;;
33826;SDS011;20128;45.582;5.298;2023-09-12T01:11:39;3.90;;;2.92;;
33826;SDS011;20128;45.582;5.298;2023-09-12T01:14:06;4.93;;;3.30;;
33826;SDS011;20128;45.582;5.298;2023-09-12T01:16:31;4.80;;;3.45;;
33826;SDS011;20128;45.582;5.298;2023-09-12T01:18:57;6.60;;;3.60;;
33826;SDS011;20128;45.582;5.298;2023-09-12T01:29:10;9.48;;;3.25;;
33826;SDS011;20128;45.582;5.298;2023-09-12T01:31:38;9.43;;;3.55;;
33826;SDS011;20128;45.582;5.298;2023-09-12T01:34:08;9.77;;;3.15;;
33826;SDS011;20128;45.582;5.298;2023-09-12T01:36:35;4.35;;;3.05;;
33826;SDS011;20128;45.582;5.298;2023-09-12T01:39:01;8.57;;;3.20;;
33826;SDS011;20128;45.582;5.298;2023-09-12T01:41:27;6.45;;;3.35;;
33826;SDS011;20128;45.582;5.298;2023-09-12T01:43:56;7.68;;;4.00;;
33826;SDS011;20128;45.582;5.298;2023-09-12T01:46:22;4.63;;;3.22;;
33826;SDS011;20128;45.582;5.298;2023-09-12T01:48:49;5.28;;;3.50;;
33826;SDS011;20128;45.582;5.298;2023-09-12T01:51:17;3.70;;;3.20;;
33826;SDS011;20128;45.582;5.298;2023-09-12T01:53:44;6.60;;;3.47;;
33826;SDS011;20128;45.582;5.298;2023-09-12T01:56:11;5.85;;;3.33;;
33826;SDS011;20128;45.582;5.298;2023-09-12T01:58:38;6.90;;;3.35;;
33826;SDS011;20128;45.582;5.298;2023-09-12T02:01:03;4.60;;;3.75;;
33826;SDS011;20128;45.582;5.298;2023-09-12T02:03:29;9.55;;;3.63;;
33826;SDS011;20128;45.582;5.298;2023-09-12T02:05:55;5.45;;;3.00;;
33826;SDS011;20128;45.582;5.298;2023-09-12T02:08:21;4.78;;;3.20;;
33826;SDS011;20128;45.582;5.298;2023-09-12T02:10:47;6.72;;;3.60;;
33826;SDS011;20128;45.582;5.298;2023-09-12T02:13:12;4.90;;;2.92;;
33826;SDS011;20128;45.582;5.298;2023-09-12T02:15:38;5.57;;;3.42;;
33826;SDS011;20128;45.582;5.298;2023-09-12T02:18:04;5.80;;;2.97;;
33826;SDS011;20128;45.582;5.298;2023-09-12T02:20:29;4.75;;;3.35;;
33826;SDS011;20128;45.582;5.298;2023-09-12T02:22:56;4.85;;;3.25;;
33826;SDS011;20128;45.582;5.298;2023-09-12T02:25:21;4.45;;;3.25;;
33826;SDS011;20128;45.582;5.298;2023-09-12T02:27:47;4.68;;;2.88;;
33826;SDS011;20128;45.582;5.298;2023-09-12T02:30:12;6.10;;;3.08;;
33826;SDS011;20128;45.582;5.298;2023-09-12T02:32:38;2.58;;;2.38;;
33826;SDS011;20128;45.582;5.298;2023-09-12T02:35:06;5.18;;;2.83;;
33826;SDS011;20128;45.582;5.298;2023-09-12T02:37:32;3.60;;;3.10;;
33826;SDS011;20128;45.582;5.298;2023-09-12T02:39:57;4.18;;;2.67;;
33826;SDS011;20128;45.582;5.298;2023-09-12T02:42:23;3.10;;;2.80;;
33826;SDS011;20128;45.582;5.298;2023-09-12T02:44:50;3.38;;;2.80;;
33826;SDS011;20128;45.582;5.298;2023-09-12T02:47:17;4.00;;;3.17;;
33826;SDS011;20128;45.582;5.298;2023-09-12T02:49:43;4.38;;;3.30;;
33826;SDS011;20128;45.582;5.298;2023-09-12T02:52:08;3.85;;;2.42;;
33826;SDS011;20128;45.582;5.298;2023-09-12T02:54:34;5.47;;;3.33;;
33826;SDS011;20128;45.582;5.298;2023-09-12T02:56:59;3.17;;;2.47;;
33826;SDS011;20128;45.582;5.298;2023-09-12T02:59:25;5.20;;;2.92;;
33826;SDS011;20128;45.582;5.298;2023-09-12T03:01:51;5.40;;;2.70;;
33826;SDS011;20128;45.582;5.298;2023-09-12T03:04:16;6.13;;;3.00;;
33826;SDS011;20128;45.582;5.298;2023-09-12T03:06:42;5.10;;;2.70;;
33826;SDS011;20128;45.582;5.298;2023-09-12T03:09:08;5.32;;;2.80;;
33826;SDS011;20128;45.582;5.298;2023-09-12T03:11:36;4.93;;;2.55;;
33826;SDS011;20128;45.582;5.298;2023-09-12T03:14:01;3.05;;;2.35;;
33826;SDS011;20128;45.582;5.298;2023-09-12T03:16:27;3.58;;;2.42;;
33826;SDS011;20128;45.582;5.298;2023-09-12T03:18:53;5.65;;;2.72;;
33826;SDS011;20128;45.582;5.298;2023-09-12T03:21:18;5.28;;;2.97;;
33826;SDS011;20128;45.582;5.298;2023-09-12T03:23:44;5.38;;;2.60;;
33826;SDS011;20128;45.582;5.298;2023-09-12T03:26:10;3.90;;;2.63;;
33826;SDS011;20128;45.582;5.298;2023-09-12T03:28:35;3.85;;;2.83;;
33826;SDS011;20128;45.582;5.298;2023-09-12T03:31:08;3.50;;;2.40;;
33826;SDS011;20128;45.582;5.298;2023-09-12T03:33:36;4.57;;;2.55;;
33826;SDS011;20128;45.582;5.298;2023-09-12T03:36:02;3.95;;;2.35;;
33826;SDS011;20128;45.582;5.298;2023-09-12T03:38:28;2.42;;;2.20;;
33826;SDS011;20128;45.582;5.298;2023-09-12T03:40:54;4.25;;;2.63;;
33826;SDS011;20128;45.582;5.298;2023-09-12T03:43:19;3.85;;;2.60;;
33826;SDS011;20128;45.582;5.298;2023-09-12T03:45:45;5.35;;;2.65;;
33826;SDS011;20128;45.582;5.298;2023-09-12T03:48:11;4.70;;;2.65;;
33826;SDS011;20128;45.582;5.298;2023-09-12T03:50:36;8.27;;;3.10;;
33826;SDS011;20128;45.582;5.298;2023-09-12T03:53:02;5.70;;;2.63;;
33826;SDS011;20128;45.582;5.298;2023-09-12T03:55:28;5.10;;;2.72;;
33826;SDS011;20128;45.582;5.298;2023-09-12T03:57:53;8.63;;;2.90;;
33826;SDS011;20128;45.582;5.298;2023-09-12T04:00:19;5.28;;;2.53;;
33826;SDS011;20128;45.582;5.298;2023-09-12T04:02:44;4.28;;;3.05;;
33826;SDS011;20128;45.582;5.298;2023-09-12T04:05:10;6.47;;;2.78;;
33826;SDS011;20128;45.582;5.298;2023-09-12T04:07:36;3.67;;;2.75;;
33826;SDS011;20128;45.582;5.298;2023-09-12T04:10:01;3.42;;;2.63;;
33826;SDS011;20128;45.582;5.298;2023-09-12T04:12:27;5.03;;;2.72;;
33826;SDS011;20128;45.582;5.298;2023-09-12T04:14:53;5.32;;;2.50;;
33826;SDS011;20128;45.582;5.298;2023-09-12T04:17:20;5.85;;;3.13;;
33826;SDS011;20128;45.582;5.298;2023-09-12T04:19:45;3.47;;;2.63;;
33826;SDS011;20128;45.582;5.298;2023-09-12T04:22:11;5.63;;;3.03;;
33826;SDS011;20128;45.582;5.298;2023-09-12T04:24:36;4.15;;;3.00;;
33826;SDS011;20128;45.582;5.298;2023-09-12T04:27:02;6.55;;;3.33;;
33826;SDS011;20128;45.582;5.298;2023-09-12T04:29:28;6.88;;;3.47;;
33826;SDS011;20128;45.582;5.298;2023-09-12T04:31:54;4.82;;;2.72;;
33826;SDS011;20128;45.582;5.298;2023-09-12T04:34:24;9.45;;;3.25;;
33826;SDS011;20128;45.582;5.298;2023-09-12T04:36:50;4.45;;;2.90;;
33826;SDS011;20128;45.582;5.298;2023-09-12T04:39:17;7.30;;;3.13;;
33826;SDS011;20128;45.582;5.298;2023-09-12T04:41:42;6.60;;;3.42;;
33826;SDS011;20128;45.582;5.298;2023-09-12T04:44:08;5.43;;;2.75;;
33826;SDS011;20128;45.582;5.298;2023-09-12T04:46:34;5.10;;;3.20;;
33826;SDS011;20128;45.582;5.298;2023-09-12T04:48:59;6.32;;;3.42;;
33826;SDS011;20128;45.582;5.298;2023-09-12T04:51:25;4.78;;;3.03;;
33826;SDS011;20128;45.582;5.298;2023-09-12T04:53:52;7.72;;;3.45;;
33826;SDS011;20128;45.582;5.298;2023-09-12T04:56:17;7.28;;;3.55;;
33826;SDS011;20128;45.582;5.298;2023-09-12T04:58:43;8.07;;;3.20;;
33826;SDS011;20128;45.582;5.298;2023-09-12T05:01:09;7.50;;;3.35;;
33826;SDS011;20128;45.582;5.298;2023-09-12T05:03:35;4.07;;;2.95;;
33826;SDS011;20128;45.582;5.298;2023-09-12T05:06:01;4.90;;;3.03;;
33826;SDS011;20128;45.582;5.298;2023-09-12T05:08:27;6.22;;;3.35;;
33826;SDS011;20128;45.582;5.298;2023-09-12T05:10:54;6.63;;;3.20;;
33826;SDS011;20128;45.582;5.298;2023-09-12T05:13:19;7.47;;;2.72;;
33826;SDS011;20128;45.582;5.298;2023-09-12T05:15:45;7.88;;;2.90;;
33826;SDS011;20128;45.582;5.298;2023-09-12T05:18:11;5.68;;;3.67;;
33826;SDS011;20128;45.582;5.298;2023-09-12T05:20:37;4.90;;;3.05;;
33826;SDS011;20128;45.582;5.298;2023-09-12T05:23:03;5.45;;;2.65;;
33826;SDS011;20128;45.582;5.298;2023-09-12T05:25:29;9.52;;;4.15;;
33826;SDS011;20128;45.582;5.298;2023-09-12T05:27:55;5.65;;;3.13;;
33826;SDS011;20128;45.582;5.298;2023-09-12T05:30:21;4.45;;;3.05;;
33826;SDS011;20128;45.582;5.298;2023-09-12T05:32:47;12.57;;;3.97;;
33826;SDS011;20128;45.582;5.298;2023-09-12T05:35:12;14.68;;;3.90;;
33826;SDS011;20128;45.582;5.298;2023-09-12T05:37:38;16.05;;;4.28;;
33826;SDS011;20128;45.582;5.298;2023-09-12T05:40:04;12.38;;;3.53;;
33826;SDS011;20128;45.582;5.298;2023-09-12T05:42:30;16.13;;;4.13;;
33826;SDS011;20128;45.582;5.298;2023-09-12T05:44:56;7.80;;;3.40;;
33826;SDS011;20128;45.582;5.298;2023-09-12T05:47:22;16.15;;;3.35;;
33826;SDS011;20128;45.582;5.298;2023-09-12T05:49:48;12.23;;;3.50;;
33826;SDS011;20128;45.582;5.298;2023-09-12T05:52:14;21.27;;;4.60;;
33826;SDS011;20128;45.582;5.298;2023-09-12T05:54:40;8.60;;;3.50;;
33826;SDS011;20128;45.582;5.298;2023-09-12T05:57:07;10.10;;;3.40;;
33826;SDS011;20128;45.582;5.298;2023-09-12T05:59:37;3.85;;;2.88;;
33826;SDS011;20128;45.582;5.298;2023-09-12T06:02:04;6.80;;;3.58;;
33826;SDS011;20128;45.582;5.298;2023-09-12T06:04:31;9.82;;;3.70;;
33826;SDS011;20128;45.582;5.298;2023-09-12T06:06:57;15.48;;;3.40;;
33826;SDS011;20128;45.582;5.298;2023-09-12T06:09:23;8.70;;;3.83;;
33826;SDS011;20128;45.582;5.298;2023-09-12T06:11:48;8.73;;;3.60;;
33826;SDS011;20128;45.582;5.298;2023-09-12T06:14:15;10.65;;;3.90;;
33826;SDS011;20128;45.582;5.298;2023-09-12T06:16:41;6.07;;;3.17;;
33826;SDS011;20128;45.582;5.298;2023-09-12T06:19:06;10.10;;;3.60;;
33826;SDS011;20128;45.582;5.298;2023-09-12T06:21:32;6.25;;;3.45;;
33826;SDS011;20128;45.582;5.298;2023-09-12T06:24:11;8.35;;;4.13;;
33826;SDS011;20128;45.582;5.298;2023-09-12T06:26:38;10.70;;;3.80;;
33826;SDS011;20128;45.582;5.298;2023-09-12T06:29:04;5.15;;;3.13;;
33826;SDS011;20128;45.582;5.298;2023-09-12T06:31:30;8.25;;;3.28;;
33826;SDS011;20128;45.582;5.298;2023-09-12T06:33:56;12.55;;;4.20;;
33826;SDS011;20128;45.582;5.298;2023-09-12T06:36:22;5.47;;;2.72;;
33826;SDS011;20128;45.582;5.298;2023-09-12T06:38:51;9.88;;;3.55;;
33826;SDS011;20128;45.582;5.298;2023-09-12T06:41:20;8.65;;;3.47;;
33826;SDS011;20128;45.582;5.298;2023-09-12T06:43:46;6.72;;;2.88;;
33826;SDS011;20128;45.582;5.298;2023-09-12T06:46:12;6.95;;;3.08;;
33826;SDS011;20128;45.582;5.298;2023-09-12T06:48:37;8.20;;;3.58;;
33826;SDS011;20128;45.582;5.298;2023-09-12T06:51:08;10.48;;;3.75;;
33826;SDS011;20128;45.582;5.298;2023-09-12T06:53:34;4.93;;;3.33;;
33826;SDS011;20128;45.582;5.298;2023-09-12T06:56:01;7.18;;;3.08;;
33826;SDS011;20128;45.582;5.298;2023-09-12T06:58:28;7.45;;;3.47;;
33826;SDS011;20128;45.582;5.298;2023-09-12T07:00:53;6.00;;;3.53;;
33826;SDS011;20128;45.582;5.298;2023-09-12T07:03:19;9.73;;;3.00;;
33826;SDS011;20128;45.582;5.298;2023-09-12T07:05:44;8.68;;;2.80;;
33826;SDS011;20128;45.582;5.298;2023-09-12T07:08:10;7.35;;;2.90;;
33826;SDS011;20128;45.582;5.298;2023-09-12T07:10:36;6.80;;;3.10;;
33826;SDS011;20128;45.582;5.298;2023-09-12T07:13:02;4.60;;;2.42;;
33826;SDS011;20128;45.582;5.298;2023-09-12T07:15:28;4.38;;;2.50;;
33826;SDS011;20128;45.582;5.298;2023-09-12T07:17:54;5.47;;;2.22;;
33826;SDS011;20128;45.582;5.298;2023-09-12T07:20:21;6.35;;;2.63;;
33826;SDS011;20128;45.582;5.298;2023-09-12T07:22:47;4.93;;;2.53;;
33826;SDS011;20128;45.582;5.298;2023-09-12T07:25:13;3.08;;;2.38;;
33826;SDS011;20128;45.582;5.298;2023-09-12T07:27:39;5.38;;;2.42;;
33826;SDS011;20128;45.582;5.298;2023-09-12T07:30:05;5.05;;;2.47;;
33826;SDS011;20128;45.582;5.298;2023-09-12T07:32:32;3.08;;;2.40;;
33826;SDS011;20128;45.582;5.298;2023-09-12T07:34:57;7.82;;;2.05;;
33826;SDS011;20128;45.582;5.298;2023-09-12T07:37:23;6.63;;;2.35;;
33826;SDS011;20128;45.582;5.298;2023-09-12T07:39:49;3.17;;;2.75;;
33826;SDS011;20128;45.582;5.298;2023-09-12T07:42:14;3.10;;;2.35;;
33826;SDS011;20128;45.582;5.298;2023-09-12T07:44:40;3.85;;;2.50;;
33826;SDS011;20128;45.582;5.298;2023-09-12T07:47:06;8.05;;;2.35;;
33826;SDS011;20128;45.582;5.298;2023-09-12T07:49:32;3.45;;;2.10;;
33826;SDS011;20128;45.582;5.298;2023-09-12T07:51:58;3.58;;;2.28;;
33826;SDS011;20128;45.582;5.298;2023-09-12T07:54:23;3.50;;;2.13;;
33826;SDS011;20128;45.582;5.298;2023-09-12T07:56:49;3.97;;;2.08;;
33826;SDS011;20128;45.582;5.298;2023-09-12T07:59:15;3.03;;;2.13;;
33826;SDS011;20128;45.582;5.298;2023-09-12T08:01:40;12.55;;;2.70;;
33826;SDS011;20128;45.582;5.298;2023-09-12T08:04:06;4.68;;;1.90;;
33826;SDS011;20128;45.582;5.298;2023-09-12T08:06:32;11.45;;;2.25;;
33826;SDS011;20128;45.582;5.298;2023-09-12T08:08:57;4.93;;;2.17;;
33826;SDS011;20128;45.582;5.298;2023-09-12T08:11:23;4.47;;;2.05;;
33826;SDS011;20128;45.582;5.298;2023-09-12T08:13:49;7.55;;;1.95;;
33826;SDS011;20128;45.582;5.298;2023-09-12T08:16:15;10.60;;;2.30;;
33826;SDS011;20128;45.582;5.298;2023-09-12T08:18:41;6.78;;;1.95;;
33826;SDS011;20128;45.582;5.298;2023-09-12T08:21:06;6.75;;;2.13;;
33826;SDS011;20128;45.582;5.298;2023-09-12T08:23:32;2.85;;;2.20;;
33826;SDS011;20128;45.582;5.298;2023-09-12T08:25:59;9.20;;;2.65;;
33826;SDS011;20128;45.582;5.298;2023-09-12T08:28:25;9.65;;;3.17;;
33826;SDS011;20128;45.582;5.298;2023-09-12T08:30:50;9.80;;;3.45;;
33826;SDS011;20128;45.582;5.298;2023-09-12T08:33:16;6.35;;;3.35;;
33826;SDS011;20128;45.582;5.298;2023-09-12T08:35:42;6.93;;;3.78;;
33826;SDS011;20128;45.582;5.298;2023-09-12T08:38:08;5.43;;;2.50;;
33826;SDS011;20128;45.582;5.298;2023-09-12T08:40:34;13.52;;;3.33;;
33826;SDS011;20128;45.582;5.298;2023-09-12T08:43:00;5.10;;;2.53;;
33826;SDS011;20128;45.582;5.298;2023-09-12T08:45:29;3.42;;;2.20;;
33826;SDS011;20128;45.582;5.298;2023-09-12T08:47:55;3.35;;;2.20;;
33826;SDS011;20128;45.582;5.298;2023-09-12T08:50:23;4.65;;;1.95;;
33826;SDS011;20128;45.582;5.298;2023-09-12T08:52:50;2.28;;;1.85;;
33826;SDS011;20128;45.582;5.298;2023-09-12T08:55:15;2.40;;;1.65;;
33826;SDS011;20128;45.582;5.298;2023-09-12T08:57:43;3.00;;;1.67;;
33826;SDS011;20128;45.582;5.298;2023-09-12T09:00:12;3.05;;;1.92;;
33826;SDS011;20128;45.582;5.298;2023-09-12T09:02:42;6.55;;;1.95;;
33826;SDS011;20128;45.582;5.298;2023-09-12T09:05:11;1.60;;;1.50;;
33826;SDS011;20128;45.582;5.298;2023-09-12T09:07:40;5.40;;;2.13;;
33826;SDS011;20128;45.582;5.298;2023-09-12T09:10:08;2.20;;;1.55;;
33826;SDS011;20128;45.582;5.298;2023-09-12T09:12:39;6.78;;;2.30;;
33826;SDS011;20128;45.582;5.298;2023-09-12T09:15:24;3.60;;;1.90;;
33826;SDS011;20128;45.582;5.298;2023-09-12T09:17:54;3.83;;;2.05;;
33826;SDS011;20128;45.582;5.298;2023-09-12T09:20:30;4.75;;;1.98;;
33826;SDS011;20128;45.582;5.298;2023-09-12T09:23:06;5.07;;;2.25;;
33826;SDS011;20128;45.582;5.298;2023-09-12T09:25:41;2.10;;;1.90;;
33826;SDS011;20128;45.582;5.298;2023-09-12T09:28:17;8.23;;;1.90;;
33826;SDS011;20128;45.582;5.298;2023-09-12T09:30:48;4.28;;;1.75;;
33826;SDS011;20128;45.582;5.298;2023-09-12T09:33:20;5.03;;;2.28;;
33826;SDS011;20128;45.582;5.298;2023-09-12T09:35:46;4.75;;;2.67;;
33826;SDS011;20128;45.582;5.298;2023-09-12T09:38:13;3.90;;;2.13;;
33826;SDS011;20128;45.582;5.298;2023-09-12T09:40:41;4.47;;;2.20;;
33826;SDS011;20128;45.582;5.298;2023-09-12T09:43:08;3.67;;;2.10;;
33826;SDS011;20128;45.582;5.298;2023-09-12T09:45:41;7.15;;;2.88;;
33826;SDS011;20128;45.582;5.298;2023-09-12T09:48:17;3.10;;;2.45;;
33826;SDS011;20128;45.582;5.298;2023-09-12T09:50:43;2.97;;;2.60;;
33826;SDS011;20128;45.582;5.298;2023-09-12T09:53:09;6.50;;;2.97;;
33826;SDS011;20128;45.582;5.298;2023-09-12T09:55:35;3.20;;;2.45;;
33826;SDS011;20128;45.582;5.298;2023-09-12T09:58:02;3.95;;;3.08;;
33826;SDS011;20128;45.582;5.298;2023-09-12T10:00:30;7.50;;;2.80;;
33826;SDS011;20128;45.582;5.298;2023-09-12T10:02:59;5.07;;;2.95;;
33826;SDS011;20128;45.582;5.298;2023-09-12T10:05:26;5.05;;;2.90;;
33826;SDS011;20128;45.582;5.298;2023-09-12T10:07:53;4.45;;;3.03;;
33826;SDS011;20128;45.582;5.298;2023-09-12T10:10:22;6.72;;;2.90;;
33826;SDS011;20128;45.582;5.298;2023-09-12T10:12:57;3.90;;;2.75;;
33826;SDS011;20128;45.582;5.298;2023-09-12T10:15:25;4.18;;;2.63;;
33826;SDS011;20128;45.582;5.298;2023-09-12T10:17:58;8.02;;;3.42;;
33826;SDS011;20128;45.582;5.298;2023-09-12T10:20:32;5.30;;;3.25;;
33826;SDS011;20128;45.582;5.298;2023-09-12T10:23:09;7.20;;;2.85;;
33826;SDS011;20128;45.582;5.298;2023-09-12T10:25:39;4.30;;;2.95;;
33826;SDS011;20128;45.582;5.298;2023-09-12T10:28:06;5.50;;;3.15;;
33826;SDS011;20128;45.582;5.298;2023-09-12T10:30:33;9.85;;;2.80;;
33826;SDS011;20128;45.582;5.298;2023-09-12T10:33:00;10.45;;;3.20;;
33826;SDS011;20128;45.582;5.298;2023-09-12T10:35:29;13.13;;;3.72;;
33826;SDS011;20128;45.582;5.298;2023-09-12T10:37:56;8.57;;;3.08;;
33826;SDS011;20128;45.582;5.298;2023-09-12T10:40:27;5.78;;;3.10;;
33826;SDS011;20128;45.582;5.298;2023-09-12T10:42:55;6.15;;;2.92;;
33826;SDS011;20128;45.582;5.298;2023-09-12T10:45:21;7.10;;;3.05;;
33826;SDS011;20128;45.582;5.298;2023-09-12T10:47:47;5.70;;;2.78;;
33826;SDS011;20128;45.582;5.298;2023-09-12T10:50:12;3.97;;;2.78;;
33826;SDS011;20128;45.582;5.298;2023-09-12T10:52:39;4.72;;;3.05;;
33826;SDS011;20128;45.582;5.298;2023-09-12T10:55:06;4.47;;;3.47;;
33826;SDS011;20128;45.582;5.298;2023-09-12T10:57:32;12.60;;;3.53;;
33826;SDS011;20128;45.582;5.298;2023-09-12T11:02:34;4.68;;;2.90;;
33826;SDS011;20128;45.582;5.298;2023-09-12T11:05:05;6.43;;;2.78;;
33826;SDS011;20128;45.582;5.298;2023-09-12T11:07:33;7.10;;;3.20;;
33826;SDS011;20128;45.582;5.298;2023-09-12T11:12:43;5.20;;;3.20;;
33826;SDS011;20128;45.582;5.298;2023-09-12T11:15:10;8.65;;;2.80;;
33826;SDS011;20128;45.582;5.298;2023-09-12T11:17:40;3.08;;;2.40;;
33826;SDS011;20128;45.582;5.298;2023-09-12T11:20:07;4.68;;;3.15;;
33826;SDS011;20128;45.582;5.298;2023-09-12T11:22:36;3.20;;;2.35;;
33826;SDS011;20128;45.582;5.298;2023-09-12T11:25:16;3.85;;;2.83;;
33826;SDS011;20128;45.582;5.298;2023-09-12T11:30:11;6.13;;;2.80;;
33826;SDS011;20128;45.582;5.298;2023-09-12T11:32:37;5.38;;;2.80;;
33826;SDS011;20128;45.582;5.298;2023-09-12T11:35:06;5.07;;;2.80;;
33826;SDS011;20128;45.582;5.298;2023-09-12T11:37:33;4.07;;;3.33;;
33826;SDS011;20128;45.582;5.298;2023-09-12T11:40:02;4.07;;;2.75;;
33826;SDS011;20128;45.582;5.298;2023-09-12T11:42:39;4.65;;;2.80;;
33826;SDS011;20128;45.582;5.298;2023-09-12T11:45:10;4.45;;;2.83;;
33826;SDS011;20128;45.582;5.298;2023-09-12T11:47:45;3.63;;;2.47;;
33826;SDS011;20128;45.582;5.298;2023-09-12T11:50:27;6.82;;;2.75;;
33826;SDS011;20128;45.582;5.298;2023-09-12T11:55:42;5.15;;;2.70;;
33826;SDS011;20128;45.582;5.298;2023-09-12T11:58:10;7.75;;;3.22;;
33826;SDS011;20128;45.582;5.298;2023-09-12T12:00:36;6.35;;;2.40;;
33826;SDS011;20128;45.582;5.298;2023-09-12T12:03:03;7.13;;;2.88;;
33826;SDS011;20128;45.582;5.298;2023-09-12T12:05:29;7.80;;;2.70;;
33826;SDS011;20128;45.582;5.298;2023-09-12T12:07:55;8.52;;;3.15;;
33826;SDS011;20128;45.582;5.298;2023-09-12T12:10:23;3.08;;;2.50;;
33826;SDS011;20128;45.582;5.298;2023-09-12T12:12:52;4.28;;;2.70;;
33826;SDS011;20128;45.582;5.298;2023-09-12T12:15:18;4.22;;;2.60;;
33826;SDS011;20128;45.582;5.298;2023-09-12T12:17:43;4.30;;;2.85;;
33826;SDS011;20128;45.582;5.298;2023-09-12T12:20:09;4.25;;;2.95;;
33826;SDS011;20128;45.582;5.298;2023-09-12T12:22:37;4.50;;;2.65;;
33826;SDS011;20128;45.582;5.298;2023-09-12T12:25:07;5.72;;;2.65;;
33826;SDS011;20128;45.582;5.298;2023-09-12T12:27:37;3.70;;;2.80;;
33826;SDS011;20128;45.582;5.298;2023-09-12T12:30:07;4.40;;;2.70;;
33826;SDS011;20128;45.582;5.298;2023-09-12T12:32:35;3.58;;;2.47;;
33826;SDS011;20128;45.582;5.298;2023-09-12T12:35:04;6.28;;;2.92;;
33826;SDS011;20128;45.582;5.298;2023-09-12T12:37:32;3.13;;;2.45;;
33826;SDS011;20128;45.582;5.298;2023-09-12T12:39:58;5.00;;;3.10;;
33826;SDS011;20128;45.582;5.298;2023-09-12T12:42:33;6.82;;;3.03;;
33826;SDS011;20128;45.582;5.298;2023-09-12T12:44:59;6.90;;;2.97;;
33826;SDS011;20128;45.582;5.298;2023-09-12T12:47:25;4.95;;;3.53;;
33826;SDS011;20128;45.582;5.298;2023-09-12T12:49:51;3.33;;;2.70;;
33826;SDS011;20128;45.582;5.298;2023-09-12T12:52:22;6.47;;;3.20;;
33826;SDS011;20128;45.582;5.298;2023-09-12T12:54:49;6.00;;;2.90;;
33826;SDS011;20128;45.582;5.298;2023-09-12T12:57:18;3.63;;;2.90;;
33826;SDS011;20128;45.582;5.298;2023-09-12T12:59:45;6.88;;;3.15;;
33826;SDS011;20128;45.582;5.298;2023-09-12T13:02:12;4.43;;;2.67;;
33826;SDS011;20128;45.582;5.298;2023-09-12T13:04:38;5.35;;;3.00;;
33826;SDS011;20128;45.582;5.298;2023-09-12T13:07:04;6.47;;;3.75;;
33826;SDS011;20128;45.582;5.298;2023-09-12T13:09:30;3.72;;;3.15;;
33826;SDS011;20128;45.582;5.298;2023-09-12T13:11:56;5.55;;;3.33;;
33826;SDS011;20128;45.582;5.298;2023-09-12T13:14:22;6.72;;;2.90;;
33826;SDS011;20128;45.582;5.298;2023-09-12T13:16:54;7.70;;;3.30;;
33826;SDS011;20128;45.582;5.298;2023-09-12T13:19:20;5.20;;;3.40;;
33826;SDS011;20128;45.582;5.298;2023-09-12T13:21:45;5.35;;;3.33;;
33826;SDS011;20128;45.582;5.298;2023-09-12T13:24:11;9.75;;;3.13;;
33826;SDS011;20128;45.582;5.298;2023-09-12T13:26:38;3.38;;;3.05;;
33826;SDS011;20128;45.582;5.298;2023-09-12T13:29:05;4.03;;;3.33;;
33826;SDS011;20128;45.582;5.298;2023-09-12T13:31:31;5.30;;;3.25;;
33826;SDS011;20128;45.582;5.298;2023-09-12T13:33:57;5.20;;;3.25;;
33826;SDS011;20128;45.582;5.298;2023-09-12T13:36:23;8.20;;;3.17;;
33826;SDS011;20128;45.582;5.298;2023-09-12T13:38:51;4.25;;;3.08;;
33826;SDS011;20128;45.582;5.298;2023-09-12T13:41:17;4.55;;;3.58;;
33826;SDS011;20128;45.582;5.298;2023-09-12T13:43:43;5.78;;;3.63;;
33826;SDS011;20128;45.582;5.298;2023-09-12T13:46:12;3.63;;;3.28;;
33826;SDS011;20128;45.582;5.298;2023-09-12T13:48:38;5.88;;;3.22;;
33826;SDS011;20128;45.582;5.298;2023-09-12T13:51:03;5.68;;;3.90;;
33826;SDS011;20128;45.582;5.298;2023-09-12T13:53:29;8.55;;;3.40;;
33826;SDS011;20128;45.582;5.298;2023-09-12T13:55:56;7.55;;;3.47;;
33826;SDS011;20128;45.582;5.298;2023-09-12T13:58:23;6.70;;;3.53;;
33826;SDS011;20128;45.582;5.298;2023-09-12T14:00:49;9.75;;;3.30;;
33826;SDS011;20128;45.582;5.298;2023-09-12T14:03:14;5.15;;;3.35;;
33826;SDS011;20128;45.582;5.298;2023-09-12T14:05:40;7.32;;;3.80;;
33826;SDS011;20128;45.582;5.298;2023-09-12T14:08:06;6.97;;;3.50;;
33826;SDS011;20128;45.582;5.298;2023-09-12T14:10:31;6.90;;;3.30;;
33826;SDS011;20128;45.582;5.298;2023-09-12T14:12:57;3.30;;;3.00;;
33826;SDS011;20128;45.582;5.298;2023-09-12T14:15:23;5.57;;;3.72;;
33826;SDS011;20128;45.582;5.298;2023-09-12T14:17:48;4.65;;;3.60;;
33826;SDS011;20128;45.582;5.298;2023-09-12T14:20:14;10.48;;;4.00;;
33826;SDS011;20128;45.582;5.298;2023-09-12T14:22:43;6.22;;;3.40;;
33826;SDS011;20128;45.582;5.298;2023-09-12T14:25:09;7.32;;;3.17;;
33826;SDS011;20128;45.582;5.298;2023-09-12T14:27:40;9.77;;;3.80;;
33826;SDS011;20128;45.582;5.298;2023-09-12T14:30:07;8.57;;;3.90;;
33826;SDS011;20128;45.582;5.298;2023-09-12T14:32:33;10.52;;;4.38;;
33826;SDS011;20128;45.582;5.298;2023-09-12T14:34:58;6.18;;;3.95;;
33826;SDS011;20128;45.582;5.298;2023-09-12T14:37:24;4.80;;;4.05;;
33826;SDS011;20128;45.582;5.298;2023-09-12T14:39:52;10.57;;;3.90;;
33826;SDS011;20128;45.582;5.298;2023-09-12T14:42:21;7.35;;;4.57;;
33826;SDS011;20128;45.582;5.298;2023-09-12T14:44:47;7.40;;;4.50;;
33826;SDS011;20128;45.582;5.298;2023-09-12T14:47:13;9.48;;;4.13;;
33826;SDS011;20128;45.582;5.298;2023-09-12T14:49:39;5.95;;;4.05;;
33826;SDS011;20128;45.582;5.298;2023-09-12T14:52:04;8.05;;;4.45;;
33826;SDS011;20128;45.582;5.298;2023-09-12T14:54:30;11.25;;;4.25;;
33826;SDS011;20128;45.582;5.298;2023-09-12T14:56:56;6.80;;;4.40;;
33826;SDS011;20128;45.582;5.298;2023-09-12T14:59:22;4.80;;;4.00;;
33826;SDS011;20128;45.582;5.298;2023-09-12T15:01:48;7.00;;;4.22;;